Time;durP1;ratioP1;P1;durP2;ratioP2;P2;SDS_P1;SDS_P2;PMS_P1;PMS_P2;Temp;Humidity;BMP_temperature;BMP_pressure;BME280_temperature;BME280_humidity;BME280_pressure;Samples;Min_cycle;Max_cycle;Signal;HPM_P1;HPM_P2
2021/09/17 00:01:07;;;;;;;3.63;3.33;;;;;;;12.48;100.00;100935.81;4928934;28;20479;-86
2021/09/17 00:03:34;;;;;;;4.75;2.60;;;;;;;12.44;100.00;100926.19;4936410;28;20122;-86
2021/09/17 00:06:01;;;;;;;4.35;2.75;;;;;;;12.37;100.00;100934.19;4923000;28;20138;-86
2021/09/17 00:08:27;;;;;;;4.40;2.95;;;;;;;12.32;100.00;100928.13;4934868;28;20128;-86
2021/09/17 00:10:54;;;;;;;5.85;2.67;;;;;;;12.30;100.00;100931.63;4917841;28;20431;-84
2021/09/17 00:13:21;;;;;;;5.97;3.17;;;;;;;12.27;100.00;100927.28;4938384;28;20048;-83
2021/09/17 00:15:47;;;;;;;3.35;3.05;;;;;;;12.27;100.00;100924.66;4939711;28;20606;-84
2021/09/17 00:18:15;;;;;;;6.07;3.40;;;;;;;12.31;100.00;100933.38;4940439;28;20047;-86
2021/09/17 00:20:42;;;;;;;5.63;4.05;;;;;;;12.30;100.00;100924.63;4935597;28;20157;-86
2021/09/17 00:23:09;;;;;;;5.80;4.28;;;;;;;12.32;100.00;100919.34;4941273;28;20126;-84
2021/09/17 00:25:36;;;;;;;5.93;4.03;;;;;;;12.33;100.00;100921.09;4916639;28;20138;-84
2021/09/17 00:28:03;;;;;;;3.97;3.67;;;;;;;12.32;100.00;100914.97;4924952;28;20055;-86
2021/09/17 00:30:30;;;;;;;4.50;3.65;;;;;;;12.31;100.00;100915.00;4932575;28;20059;-84
2021/09/17 00:32:58;;;;;;;6.22;4.03;;;;;;;12.30;100.00;100916.75;4939540;28;20066;-86
2021/09/17 00:35:26;;;;;;;9.85;4.18;;;;;;;12.32;100.00;100911.47;4924374;28;20043;-85
2021/09/17 00:37:54;;;;;;;8.70;4.32;;;;;;;12.34;100.00;100914.97;4919203;28;20113;-86
2021/09/17 00:40:21;;;;;;;9.00;4.78;;;;;;;12.32;100.00;100909.72;4922777;28;20055;-86
2021/09/17 00:42:47;;;;;;;8.48;4.70;;;;;;;12.34;100.00;100909.72;4920988;28;20094;-83
2021/09/17 00:45:14;;;;;;;5.43;4.80;;;;;;;12.36;100.00;100903.56;4954505;28;20047;-83
2021/09/17 00:47:42;;;;;;;8.35;5.93;;;;;;;12.44;100.00;100918.31;4941151;28;20054;-85
2021/09/17 00:50:13;;;;;;;6.82;4.35;;;;;;;12.41;100.00;100912.25;4930192;28;20082;-84
2021/09/17 00:52:40;;;;;;;8.95;6.05;;;;;;;12.36;100.00;100916.69;4924626;28;20047;-83
2021/09/17 00:55:08;;;;;;;6.40;5.00;;;;;;;12.34;100.00;100909.72;4918791;28;20142;-86
2021/09/17 00:57:36;;;;;;;6.68;4.32;;;;;;;12.34;100.00;100910.56;4940086;28;20129;-84
2021/09/17 01:00:07;;;;;;;6.57;4.50;;;;;;;12.43;100.00;100917.47;4934822;28;20130;-86
2021/09/17 01:05:19;;;;;;;6.18;5.22;;;;;;;12.63;100.00;100914.56;4954109;28;20098;-84
2021/09/17 01:07:47;;;;;;;7.22;5.05;;;;;;;12.72;100.00;100906.59;4952179;28;20043;-86
2021/09/17 01:10:15;;;;;;;5.65;5.07;;;;;;;12.81;100.00;100905.56;4939047;28;20125;-85
2021/09/17 01:12:43;;;;;;;4.60;4.20;;;;;;;12.90;100.00;100910.69;4939170;28;20457;-86
2021/09/17 01:15:11;;;;;;;8.85;4.70;;;;;;;12.98;100.00;100907.97;4941801;28;20046;-88
2021/09/17 01:17:42;;;;;;;10.05;5.20;;;;;;;13.05;100.00;100908.75;4939001;28;20051;-86
2021/09/17 01:20:14;;;;;;;7.47;4.90;;;;;;;13.12;100.00;100913.03;4939750;28;20046;-87
2021/09/17 01:22:41;;;;;;;7.88;4.43;;;;;;;13.17;100.00;100910.34;4927416;28;20216;-87
2021/09/17 01:25:14;;;;;;;5.63;4.72;;;;;;;13.16;100.00;100909.44;4935730;28;20054;-86
2021/09/17 01:27:47;;;;;;;8.57;4.85;;;;;;;13.18;100.00;100909.41;4941855;28;20054;-83
2021/09/17 01:30:16;;;;;;;5.95;5.40;;;;;;;13.18;100.00;100905.03;4917635;28;20078;-82
2021/09/17 01:32:43;;;;;;;6.57;4.68;;;;;;;13.21;100.00;100912.00;4941216;28;20071;-87
2021/09/17 01:35:18;;;;;;;7.13;4.85;;;;;;;13.23;100.00;100891.81;4924879;28;20411;-84
2021/09/17 01:37:46;;;;;;;6.05;4.50;;;;;;;13.22;100.00;100901.47;4943185;28;20571;-83
2021/09/17 01:40:14;;;;;;;6.55;4.45;;;;;;;13.22;100.00;100897.97;4922777;28;20573;-83
2021/09/17 01:42:42;;;;;;;6.60;5.50;;;;;;;13.26;100.00;100889.16;4915548;28;20407;-83
2021/09/17 01:45:10;;;;;;;6.22;4.47;;;;;;;13.32;100.00;100893.44;4942345;28;20213;-86
2021/09/17 01:47:37;;;;;;;9.05;4.85;;;;;;;13.32;100.00;100883.75;4939160;28;20322;-85
2021/09/17 01:50:06;;;;;;;7.65;5.28;;;;;;;13.29;100.00;100883.81;4940177;28;20053;-83
2021/09/17 01:52:33;;;;;;;6.40;4.93;;;;;;;13.29;100.00;100891.72;4934604;28;20049;-84
2021/09/17 01:54:59;;;;;;;6.38;5.07;;;;;;;13.27;100.00;100880.38;4924441;28;20413;-87
2021/09/17 01:57:26;;;;;;;6.07;5.32;;;;;;;13.26;100.00;100885.63;4944547;28;20374;-86
2021/09/17 01:59:53;;;;;;;11.18;5.72;;;;;;;13.24;100.00;100883.94;4921621;28;20054;-88
2021/09/17 02:02:19;;;;;;;6.72;5.63;;;;;;;13.21;100.00;100883.94;4926505;28;20512;-85
2021/09/17 02:04:46;;;;;;;6.85;6.07;;;;;;;13.19;100.00;100887.50;4923648;28;20177;-83
2021/09/17 02:07:13;;;;;;;8.32;5.78;;;;;;;13.16;100.00;100884.94;4940847;28;20109;-85
2021/09/17 02:09:40;;;;;;;5.75;5.05;;;;;;;13.12;100.00;100885.88;4959408;28;20062;-85
2021/09/17 02:12:07;;;;;;;9.13;5.93;;;;;;;13.09;100.00;100886.78;4933889;28;20051;-86
2021/09/17 02:14:34;;;;;;;8.02;5.90;;;;;;;13.11;100.00;100885.00;4923526;28;20055;-82
2021/09/17 02:17:00;;;;;;;7.15;5.43;;;;;;;13.16;100.00;100882.31;4918495;28;20050;-86
2021/09/17 02:19:27;;;;;;;7.57;4.90;;;;;;;13.22;100.00;100879.59;4937751;28;20062;-85
2021/09/17 02:21:56;;;;;;;7.03;5.20;;;;;;;13.28;100.00;100883.88;4940317;28;20039;-86
2021/09/17 02:24:24;;;;;;;10.80;5.93;;;;;;;13.31;100.00;100881.16;4933367;28;20061;-86
2021/09/17 02:26:51;;;;;;;8.65;5.38;;;;;;;13.32;100.00;100875.88;4940120;28;20061;-84
2021/09/17 02:29:17;;;;;;;5.65;5.05;;;;;;;13.34;100.00;100887.25;4922441;28;20051;-86
2021/09/17 02:31:44;;;;;;;6.40;5.80;;;;;;;13.37;100.00;100884.59;4926760;28;20553;-86
2021/09/17 02:34:12;;;;;;;6.53;5.32;;;;;;;13.39;100.00;100879.34;4937586;28;20693;-82
2021/09/17 02:36:39;;;;;;;7.25;5.32;;;;;;;13.42;100.00;100883.66;4922049;28;20046;-84
2021/09/17 02:39:07;;;;;;;8.10;6.30;;;;;;;13.40;100.00;100881.03;4921737;28;20541;-85
2021/09/17 02:41:34;;;;;;;7.35;5.82;;;;;;;13.43;100.00;100881.00;4918481;28;20047;-83
2021/09/17 02:44:01;;;;;;;6.80;5.75;;;;;;;13.46;100.00;100872.19;4929198;28;20047;-86
2021/09/17 02:46:27;;;;;;;7.70;6.47;;;;;;;13.48;100.00;100873.91;4934788;28;20052;-86
2021/09/17 02:48:54;;;;;;;8.90;5.93;;;;;;;13.50;100.00;100879.13;4920511;28;20062;-84
2021/09/17 02:51:20;;;;;;;8.63;5.80;;;;;;;13.51;100.00;100879.09;4920732;28;20138;-85
2021/09/17 02:53:47;;;;;;;7.10;6.07;;;;;;;13.52;100.00;100877.38;4919893;28;20071;-85
2021/09/17 02:56:14;;;;;;;11.90;7.75;;;;;;;13.51;100.00;100884.38;4921057;28;20142;-86
2021/09/17 02:58:41;;;;;;;8.65;5.72;;;;;;;13.51;100.00;100880.88;4935170;28;20047;-86
2021/09/17 03:01:07;;;;;;;7.97;6.88;;;;;;;13.49;100.00;100882.66;4919049;28;20101;-87
2021/09/17 03:03:34;;;;;;;7.95;7.00;;;;;;;13.47;100.00;100882.69;4939962;28;20059;-83
2021/09/17 03:06:01;;;;;;;12.77;6.78;;;;;;;13.48;100.00;100878.28;4932991;28;20102;-86
2021/09/17 03:08:27;;;;;;;9.43;6.90;;;;;;;13.46;100.00;100873.06;4939591;28;20075;-87
2021/09/17 03:10:57;;;;;;;8.07;6.78;;;;;;;13.47;100.00;100885.31;4931273;28;20063;-86
2021/09/17 03:13:28;;;;;;;13.02;7.32;;;;;;;13.49;100.00;100883.53;4907268;28;20047;-87
2021/09/17 03:15:56;;;;;;;8.75;6.03;;;;;;;13.49;100.00;100878.28;4906616;28;20439;-83
2021/09/17 03:18:23;;;;;;;13.07;8.23;;;;;;;13.52;100.00;100880.00;4890560;28;20073;-88
2021/09/17 03:20:50;;;;;;;12.57;7.60;;;;;;;13.46;100.00;100878.31;4918732;28;20139;-86
2021/09/17 03:23:18;;;;;;;11.23;7.40;;;;;;;13.46;100.00;100875.69;4901563;28;20047;-85
2021/09/17 03:25:44;;;;;;;9.48;6.93;;;;;;;13.45;100.00;100859.94;4904548;28;20059;-85
2021/09/17 03:28:11;;;;;;;9.18;7.45;;;;;;;13.42;100.00;100867.91;4901881;28;20529;-86
2021/09/17 03:30:38;;;;;;;13.35;8.07;;;;;;;13.43;100.00;100870.50;4902427;28;22108;-84
2021/09/17 03:33:04;;;;;;;17.90;8.93;;;;;;;13.43;100.00;100872.22;4922112;28;20053;-86
2021/09/17 03:35:31;;;;;;;15.88;8.23;;;;;;;13.43;100.00;100869.59;4901187;28;20874;-84
2021/09/17 03:37:58;;;;;;;16.15;9.25;;;;;;;13.42;100.00;100875.78;4921617;28;20126;-84
2021/09/17 03:40:25;;;;;;;14.57;7.60;;;;;;;13.44;100.00;100873.97;4903228;28;20570;-86
2021/09/17 03:42:51;;;;;;;12.73;7.70;;;;;;;13.44;100.00;100866.97;4920695;28;20062;-84
2021/09/17 03:45:18;;;;;;;14.77;9.75;;;;;;;13.40;100.00;100868.78;4900803;28;20134;-85
2021/09/17 03:47:45;;;;;;;13.75;8.15;;;;;;;13.38;100.00;100862.66;4914832;28;20059;-83
2021/09/17 03:50:11;;;;;;;15.27;8.77;;;;;;;13.39;100.00;100864.41;4924034;28;20463;-83
2021/09/17 03:52:39;;;;;;;15.68;9.57;;;;;;;13.38;100.00;100861.81;4902429;28;20149;-82
2021/09/17 03:55:07;;;;;;;16.90;8.93;;;;;;;13.39;100.00;100866.19;4906542;28;20462;-84
2021/09/17 03:57:34;;;;;;;23.45;9.55;;;;;;;13.41;100.00;100864.38;4920566;28;20076;-82
2021/09/17 04:00:00;;;;;;;19.33;8.98;;;;;;;13.40;100.00;100866.16;4904941;28;20119;-84
2021/09/17 04:02:27;;;;;;;16.23;9.05;;;;;;;13.39;100.00;100867.03;4904985;28;20495;-83
2021/09/17 04:04:53;;;;;;;17.35;9.90;;;;;;;13.42;100.00;100871.38;4919650;28;20418;-81
2021/09/17 04:07:20;;;;;;;16.10;10.05;;;;;;;13.42;100.00;100862.63;4907245;28;20051;-84
2021/09/17 04:09:47;;;;;;;14.93;9.65;;;;;;;13.41;100.00;100864.38;4917559;28;20395;-84
2021/09/17 04:12:13;;;;;;;21.92;11.05;;;;;;;13.42;100.00;100865.28;4900984;28;20066;-83
2021/09/17 04:14:40;;;;;;;22.67;10.43;;;;;;;13.43;100.00;100853.81;4918891;28;20051;-82
2021/09/17 04:17:06;;;;;;;15.15;10.05;;;;;;;13.43;100.00;100859.97;4935716;28;20050;-84
2021/09/17 04:19:36;;;;;;;23.27;11.60;;;;;;;13.43;100.00;100851.19;4897138;28;20261;-84
2021/09/17 04:22:10;;;;;;;24.83;12.02;;;;;;;13.42;100.00;100860.88;4905462;28;20047;-87
2021/09/17 04:24:37;;;;;;;17.35;10.38;;;;;;;13.40;100.00;100855.63;4925825;28;20421;-87
2021/09/17 04:27:05;;;;;;;15.55;10.73;;;;;;;13.38;100.00;100852.16;4911132;28;20062;-82
2021/09/17 04:29:31;;;;;;;15.57;10.95;;;;;;;13.38;100.00;100857.41;4924149;28;20138;-84
2021/09/17 04:31:58;;;;;;;16.67;10.98;;;;;;;13.39;100.00;100859.16;4915772;28;20134;-83
2021/09/17 04:34:25;;;;;;;16.67;11.45;;;;;;;13.40;100.00;100860.91;4921498;28;20054;-83
2021/09/17 04:36:52;;;;;;;19.48;11.65;;;;;;;13.45;100.00;100862.56;4911010;28;20047;-84
2021/09/17 04:39:19;;;;;;;14.73;11.07;;;;;;;13.45;100.00;100852.06;4904959;28;20422;-83
2021/09/17 04:41:46;;;;;;;15.00;10.77;;;;;;;13.43;100.00;100861.72;4914870;28;20179;-84
2021/09/17 04:44:12;;;;;;;12.70;9.70;;;;;;;13.40;100.00;100863.53;4924433;28;20061;-84
2021/09/17 04:46:39;;;;;;;16.30;10.55;;;;;;;13.32;100.00;100862.72;4909195;28;20051;-85
2021/09/17 04:49:07;;;;;;;18.20;12.05;;;;;;;13.16;100.00;100861.28;4908186;28;20066;-84
2021/09/17 04:51:33;;;;;;;19.75;12.07;;;;;;;13.02;100.00;100867.63;4906314;28;20055;-84
2021/09/17 04:54:07;;;;;;;17.45;11.10;;;;;;;13.00;100.00;100876.44;4908461;28;20108;-84
2021/09/17 04:56:34;;;;;;;18.13;11.65;;;;;;;13.00;100.00;100874.66;4918425;28;20230;-83
2021/09/17 04:59:00;;;;;;;18.85;11.30;;;;;;;13.00;100.00;100882.53;4923252;28;20093;-84
2021/09/17 05:01:27;;;;;;;17.08;11.10;;;;;;;12.99;100.00;100887.81;4910120;28;20055;-83
2021/09/17 05:03:54;;;;;;;24.63;13.13;;;;;;;12.99;100.00;100888.69;4906944;28;20055;-83
2021/09/17 05:06:21;;;;;;;16.42;12.20;;;;;;;13.03;100.00;100890.38;4910080;28;20083;-83
2021/09/17 05:08:48;;;;;;;15.65;11.40;;;;;;;13.09;100.00;100886.78;4909754;28;20055;-83
2021/09/17 05:11:15;;;;;;;15.98;10.73;;;;;;;13.15;100.00;100885.81;4914098;28;20676;-88
2021/09/17 05:13:42;;;;;;;18.40;11.30;;;;;;;13.21;100.00;100888.34;4922736;28;20047;-85
2021/09/17 05:16:08;;;;;;;14.73;11.07;;;;;;;13.24;100.00;100886.56;4909449;28;20118;-86
2021/09/17 05:18:35;;;;;;;19.45;11.10;;;;;;;13.31;100.00;100887.31;4912880;28;20338;-90
2021/09/17 05:21:02;;;;;;;18.95;12.32;;;;;;;13.34;100.00;100884.63;4907487;28;20057;-87
2021/09/17 05:23:29;;;;;;;17.45;10.95;;;;;;;13.40;100.00;100886.31;4927021;28;20074;-85
2021/09/17 05:25:56;;;;;;;11.90;9.27;;;;;;;13.38;100.00;100883.69;4924738;28;20384;-83
2021/09/17 05:28:23;;;;;;;17.17;10.15;;;;;;;13.46;100.00;100888.84;4910357;28;20047;-87
2021/09/17 05:30:49;;;;;;;15.57;11.38;;;;;;;13.55;100.00;100883.41;4909107;28;20044;-87
2021/09/17 05:33:16;;;;;;;14.05;10.35;;;;;;;13.62;100.00;100888.56;4906836;28;20810;-87
2021/09/17 05:35:42;;;;;;;15.05;10.57;;;;;;;13.67;100.00;100878.84;4909336;28;20055;-85
2021/09/17 05:38:09;;;;;;;14.93;9.98;;;;;;;13.71;100.00;100873.50;4905438;28;20178;-86
2021/09/17 05:40:36;;;;;;;14.05;10.63;;;;;;;13.76;100.00;100883.06;4912916;28;20052;-85
2021/09/17 05:43:06;;;;;;;17.50;10.55;;;;;;;13.80;100.00;100890.84;4905856;28;20166;-84
2021/09/17 05:45:33;;;;;;;31.15;11.93;;;;;;;13.80;100.00;100885.59;4921622;28;20050;-85
2021/09/17 05:47:59;;;;;;;15.23;9.50;;;;;;;13.84;100.00;100876.75;4911611;28;20083;-84
2021/09/17 05:50:26;;;;;;;12.70;10.30;;;;;;;13.87;100.00;100876.72;4920889;28;20139;-83
2021/09/17 05:52:53;;;;;;;13.18;10.50;;;;;;;13.86;100.00;100876.75;4908912;28;20573;-85
2021/09/17 05:55:20;;;;;;;14.32;10.60;;;;;;;13.88;100.00;100873.19;4908089;28;20916;-85
2021/09/17 05:57:47;;;;;;;20.10;9.90;;;;;;;13.89;100.00;100874.91;4908642;28;20196;-84
2021/09/17 06:00:14;;;;;;;11.95;10.52;;;;;;;13.91;100.00;100885.41;4909777;28;20070;-84
2021/09/17 06:02:41;;;;;;;20.23;11.20;;;;;;;13.92;100.00;100887.13;4900463;28;20058;-84
2021/09/17 06:05:08;;;;;;;12.20;10.85;;;;;;;13.91;100.00;100885.41;4926642;28;20066;-86
2021/09/17 06:07:41;;;;;;;18.73;11.43;;;;;;;13.94;100.00;100885.34;4905851;28;20062;-84
2021/09/17 06:10:09;;;;;;;14.07;10.63;;;;;;;13.98;100.00;100889.66;4904687;28;20062;-84
2021/09/17 06:12:40;;;;;;;13.98;10.73;;;;;;;14.04;100.00;100883.38;4923164;28;20511;-83
2021/09/17 06:15:08;;;;;;;15.32;10.18;;;;;;;14.07;100.00;100884.19;4937647;28;21121;-85
2021/09/17 06:17:34;;;;;;;16.17;10.35;;;;;;;14.11;100.00;100886.78;4928115;28;20573;-83
2021/09/17 06:20:01;;;;;;;14.68;10.90;;;;;;;14.17;100.00;100879.63;4914142;28;20050;-84
2021/09/17 06:22:28;;;;;;;12.13;9.65;;;;;;;14.23;100.00;100884.75;4923198;28;20055;-83
2021/09/17 06:24:55;;;;;;;17.92;11.93;;;;;;;14.33;100.00;100877.53;4923009;28;20149;-82
2021/09/17 06:27:21;;;;;;;14.68;11.93;;;;;;;14.47;100.00;100877.25;4941794;28;20055;-84
2021/09/17 06:29:51;;;;;;;14.50;10.88;;;;;;;14.68;100.00;100878.59;4923128;28;20047;-85
2021/09/17 06:32:17;;;;;;;12.15;9.75;;;;;;;14.82;100.00;100880.03;4929848;28;20431;-85
2021/09/17 06:34:44;;;;;;;15.35;9.80;;;;;;;14.96;99.46;100883.22;4927429;28;20061;-83
2021/09/17 06:37:11;;;;;;;15.50;9.88;;;;;;;15.11;98.60;100882.00;4932999;28;20573;-83
2021/09/17 06:39:37;;;;;;;10.43;8.18;;;;;;;15.28;97.87;100880.69;4939337;28;20455;-82
2021/09/17 06:42:07;;;;;;;12.60;10.35;;;;;;;15.25;96.92;100880.78;4922830;28;20836;-86
2021/09/17 06:44:35;;;;;;;15.60;10.15;;;;;;;15.11;97.20;100892.53;4922640;28;20069;-83
2021/09/17 06:47:02;;;;;;;15.40;9.27;;;;;;;14.98;97.61;100889.31;4921986;28;20066;-86
2021/09/17 06:49:28;;;;;;;12.45;9.95;;;;;;;14.85;97.94;100888.75;4936322;28;20054;-83
2021/09/17 06:51:55;;;;;;;17.02;10.77;;;;;;;14.81;98.44;100897.63;4940009;28;20042;-85
2021/09/17 06:54:22;;;;;;;15.23;10.70;;;;;;;14.88;98.19;100893.06;4923450;28;20421;-87
2021/09/17 06:56:48;;;;;;;11.45;9.88;;;;;;;14.95;97.90;100896.44;4929584;28;20095;-87
2021/09/17 06:59:15;;;;;;;17.17;11.05;;;;;;;15.04;97.68;100891.81;4940150;28;20101;-84
2021/09/17 07:01:41;;;;;;;13.95;10.63;;;;;;;15.10;97.71;100893.44;4952829;28;20140;-84
2021/09/17 07:04:09;;;;;;;16.58;10.02;;;;;;;15.27;96.90;100894.81;4942978;28;20046;-85
2021/09/17 07:06:37;;;;;;;10.90;9.15;;;;;;;15.54;96.12;100896.75;4931107;28;20055;-86
2021/09/17 07:09:07;;;;;;;10.80;9.23;;;;;;;15.70;94.82;100904.25;4943228;28;20113;-85
2021/09/17 07:11:34;;;;;;;12.68;9.05;;;;;;;15.75;94.46;100891.81;4928090;28;20081;-85
2021/09/17 07:14:04;;;;;;;11.80;8.27;;;;;;;15.79;94.09;100895.25;4926869;28;20046;-85
2021/09/17 07:16:30;;;;;;;14.45;8.40;;;;;;;15.81;93.67;100891.69;4923454;28;20654;-85
2021/09/17 07:18:57;;;;;;;11.18;8.55;;;;;;;15.83;93.32;100894.28;4930940;28;20062;-84
2021/09/17 07:21:24;;;;;;;9.10;6.95;;;;;;;15.87;93.05;100886.22;4944637;28;20998;-85
2021/09/17 07:23:51;;;;;;;9.07;7.63;;;;;;;15.91;92.53;100894.06;4927670;28;20078;-87
2021/09/17 07:26:17;;;;;;;11.70;8.10;;;;;;;15.95;92.49;100887.78;4944536;28;20057;-84
2021/09/17 07:28:44;;;;;;;11.65;7.78;;;;;;;15.91;90.71;100889.66;4945905;28;20310;-85
2021/09/17 07:31:13;;;;;;;11.65;7.90;;;;;;;15.91;91.28;100888.78;4923889;28;20051;-87
2021/09/17 07:33:39;;;;;;;10.48;8.00;;;;;;;15.87;90.74;100894.13;4938335;28;20069;-85
2021/09/17 07:36:06;;;;;;;8.50;7.05;;;;;;;15.98;91.08;100896.50;4942499;28;20058;-85
2021/09/17 07:38:33;;;;;;;7.68;6.45;;;;;;;16.24;90.35;100891.38;4927450;28;20059;-86
2021/09/17 07:41:09;;;;;;;8.90;6.38;;;;;;;16.76;88.70;100899.53;4930435;28;20046;-84
2021/09/17 07:43:35;;;;;;;11.75;7.07;;;;;;;17.40;86.00;100886.03;4936723;28;20062;-85
2021/09/17 07:46:02;;;;;;;9.23;5.70;;;;;;;17.94;82.99;100894.81;4930557;28;20066;-84
2021/09/17 07:48:29;;;;;;;9.35;5.57;;;;;;;18.50;79.77;100884.81;4933025;28;20059;-85
2021/09/17 07:50:56;;;;;;;10.85;6.18;;;;;;;19.03;77.95;100893.38;4946797;28;20042;-86
2021/09/17 07:53:23;;;;;;;7.18;4.57;;;;;;;19.49;74.77;100884.38;4959142;28;20037;-86
2021/09/17 07:55:53;;;;;;;5.25;4.20;;;;;;;19.93;73.02;100890.50;4929144;28;20075;-86
2021/09/17 07:58:21;;;;;;;6.97;4.40;;;;;;;20.16;70.93;100889.47;4950516;28;20141;-84
2021/09/17 08:00:50;;;;;;;6.20;3.55;;;;;;;20.43;68.63;100884.69;4941523;28;20153;-87
2021/09/17 08:03:18;;;;;;;5.10;3.78;;;;;;;20.75;66.55;100889.44;4959755;28;20051;-85
2021/09/17 08:05:45;;;;;;;3.70;2.97;;;;;;;21.04;66.68;100888.06;4939282;28;20058;-85
2021/09/17 08:08:12;;;;;;;3.72;3.42;;;;;;;21.04;65.40;100887.19;4930625;28;20062;-84
2021/09/17 08:10:39;;;;;;;5.55;3.47;;;;;;;21.41;64.58;100886.19;4922417;28;20065;-85
2021/09/17 08:13:10;;;;;;;2.67;1.95;;;;;;;21.50;62.03;100884.88;4944557;28;20141;-85
2021/09/17 08:15:40;;;;;;;1.90;1.33;;;;;;;21.41;62.25;100894.19;4946727;28;20054;-86
2021/09/17 08:18:07;;;;;;;1.38;0.88;;;;;;;21.68;61.11;100888.44;4926082;28;20047;-84
2021/09/17 08:20:34;;;;;;;2.00;0.60;;;;;;;21.91;59.31;100884.53;4929118;28;20050;-86
2021/09/17 08:23:03;;;;;;;6.50;0.73;;;;;;;22.12;57.34;100881.69;4944140;28;20097;-86
2021/09/17 08:25:30;;;;;;;1.10;0.30;;;;;;;22.00;56.28;100893.84;4929501;28;20106;-86
2021/09/17 08:27:57;;;;;;;1.60;0.40;;;;;;;21.61;55.87;100887.88;4941366;28;20157;-86
2021/09/17 08:30:24;;;;;;;0.80;0.32;;;;;;;21.78;55.91;100891.47;4928080;28;20051;-85
2021/09/17 08:32:50;;;;;;;1.27;0.40;;;;;;;22.19;54.24;100892.88;4927993;28;20051;-86
2021/09/17 08:35:17;;;;;;;2.13;0.35;;;;;;;22.80;51.91;100902.00;4926364;28;20057;-84
2021/09/17 08:37:44;;;;;;;1.10;0.20;;;;;;;23.22;51.23;100899.66;4945891;28;20231;-84
2021/09/17 08:40:11;;;;;;;2.40;0.30;;;;;;;23.73;49.75;100910.03;4929262;28;20138;-88
2021/09/17 08:42:38;;;;;;;1.63;0.30;;;;;;;23.87;48.75;100902.03;4938302;28;20124;-87
2021/09/17 08:45:07;;;;;;;0.82;0.20;;;;;;;23.10;50.13;100910.06;4935823;28;20597;-84
2021/09/17 08:47:33;;;;;;;2.53;0.80;;;;;;;23.18;50.30;100904.31;4951983;28;20053;-87
2021/09/17 08:50:00;;;;;;;3.45;0.95;;;;;;;23.03;50.69;100915.84;4947990;28;20086;-85
2021/09/17 08:52:27;;;;;;;0.98;0.60;;;;;;;22.28;51.99;100898.59;4947306;28;20043;-87
2021/09/17 08:54:56;;;;;;;3.47;0.43;;;;;;;21.74;53.69;100920.06;4945737;28;20169;-85
2021/09/17 08:57:32;;;;;;;0.30;0.30;;;;;;;21.30;53.70;100912.50;4969832;28;20051;-85
2021/09/17 09:00:02;;;;;;;0.95;0.30;;;;;;;21.23;54.03;100919.09;4933818;28;20047;-85
2021/09/17 09:02:30;;;;;;;2.65;0.40;;;;;;;21.11;54.53;100920.56;4929763;28;20063;-87
2021/09/17 09:07:50;;;;;;;0.83;0.50;;;;;;;20.78;55.68;100906.13;4952289;28;20721;-85
2021/09/17 09:10:17;;;;;;;0.63;0.35;;;;;;;20.80;55.85;100903.41;4926057;28;20047;-86
2021/09/17 09:12:56;;;;;;;1.27;0.38;;;;;;;21.34;54.49;100898.13;4909070;28;22368;-86
2021/09/17 09:15:32;;;;;;;2.83;0.55;;;;;;;21.71;53.24;100901.59;4925837;28;20079;-85
2021/09/17 09:18:06;;;;;;;3.70;0.90;;;;;;;21.38;53.89;100898.81;4927459;28;20113;-84
2021/09/17 09:20:35;;;;;;;1.27;0.63;;;;;;;20.95;55.17;100905.31;4945521;28;20070;-85
2021/09/17 09:23:24;;;;;;;0.70;0.38;;;;;;;20.32;56.26;100910.91;4947925;28;20110;-86
2021/09/17 09:26:08;;;;;;;1.77;0.85;;;;;;;20.04;57.83;100903.31;4948411;28;20050;-86
2021/09/17 09:28:43;;;;;;;2.13;0.55;;;;;;;20.06;57.88;100896.13;4935290;28;20525;-83
2021/09/17 09:31:19;;;;;;;3.17;0.70;;;;;;;20.02;58.09;100898.06;4948298;28;20132;-84
2021/09/17 09:33:52;;;;;;;0.80;0.60;;;;;;;20.89;55.91;100894.97;4926583;28;20038;-85
2021/09/17 09:36:25;;;;;;;5.95;0.82;;;;;;;21.45;54.41;100895.75;4913299;28;20512;-85
2021/09/17 09:38:56;;;;;;;3.47;0.77;;;;;;;22.20;52.42;100890.16;4953442;28;20132;-87
2021/09/17 09:41:26;;;;;;;1.90;0.60;;;;;;;23.17;50.09;100896.41;4950377;28;21467;-85
2021/09/17 09:43:57;;;;;;;0.68;0.40;;;;;;;23.84;48.16;100883.47;4929066;28;20497;-84
2021/09/17 09:46:33;;;;;;;1.48;0.50;;;;;;;24.42;46.57;100889.72;4920527;28;20042;-85
2021/09/17 09:49:01;;;;;;;1.92;0.40;;;;;;;25.38;44.68;100885.34;4918026;28;20055;-86
2021/09/17 09:51:55;;;;;;;2.75;0.82;;;;;;;26.35;42.11;100873.25;4942174;28;20067;-86
2021/09/17 09:54:32;;;;;;;1.02;0.50;;;;;;;26.53;42.00;100876.44;4937029;28;20051;-86
2021/09/17 09:57:02;;;;;;;1.05;0.45;;;;;;;26.63;40.38;100881.13;4965592;28;20042;-86
2021/09/17 09:59:37;;;;;;;0.65;0.20;;;;;;;26.22;40.39;100888.53;4918749;28;20133;-85
2021/09/17 10:02:07;;;;;;;0.55;0.40;;;;;;;25.43;42.81;100877.88;4935451;28;20079;-86
2021/09/17 10:04:35;;;;;;;1.20;0.60;;;;;;;24.76;44.20;100879.56;4937919;28;20043;-87
2021/09/17 10:07:05;;;;;;;0.52;0.52;;;;;;;24.06;45.51;100879.53;4951309;28;20035;-85
2021/09/17 10:09:35;;;;;;;0.73;0.40;;;;;;;23.38;46.70;100884.44;4931641;28;20122;-85
2021/09/17 10:12:14;;;;;;;0.50;0.45;;;;;;;22.71;48.40;100891.84;4946937;28;20501;-86
2021/09/17 10:14:43;;;;;;;1.20;0.85;;;;;;;22.10;49.91;100880.91;4925416;28;20070;-86
2021/09/17 10:17:19;;;;;;;0.75;0.75;;;;;;;21.45;51.15;100884.25;4930161;28;20054;-84
2021/09/17 10:19:52;;;;;;;4.03;0.60;;;;;;;20.77;52.91;100884.94;4946850;28;20051;-85
2021/09/17 10:22:50;;;;;;;1.65;0.95;;;;;;;20.64;53.61;100877.50;4931594;28;20051;-83
2021/09/17 10:25:40;;;;;;;3.13;0.57;;;;;;;22.04;50.77;100868.75;4940562;28;20035;-84
2021/09/17 10:28:14;;;;;;;0.40;0.40;;;;;;;23.73;46.08;100869.94;4938625;28;20505;-86
2021/09/17 10:30:43;;;;;;;0.88;0.50;;;;;;;24.81;43.19;100868.56;4919676;28;20061;-85
2021/09/17 10:33:30;;;;;;;1.55;1.17;;;;;;;24.87;43.01;100864.59;4940665;28;20428;-86
2021/09/17 10:35:57;;;;;;;0.38;0.32;;;;;;;24.84;43.40;100867.50;4924921;28;20122;-85
2021/09/17 10:38:34;;;;;;;2.70;0.90;;;;;;;24.22;43.80;100874.06;4909559;28;20327;-85
2021/09/17 10:41:02;;;;;;;1.63;0.40;;;;;;;23.89;45.22;100868.03;4918235;28;20062;-85
2021/09/17 10:43:38;;;;;;;0.70;0.30;;;;;;;22.94;46.75;100879.84;4939868;28;20035;-85
2021/09/17 10:46:11;;;;;;;1.17;0.57;;;;;;;22.29;48.71;100876.31;4931894;28;20102;-85
2021/09/17 10:48:44;;;;;;;0.80;0.50;;;;;;;22.10;49.24;100884.44;4917422;28;20414;-85
2021/09/17 10:51:32;;;;;;;1.10;0.30;;;;;;;22.11;48.81;100871.94;4929701;28;21397;-85
2021/09/17 10:54:01;;;;;;;1.10;0.60;;;;;;;22.28;48.55;100869.25;4935277;28;20043;-84
2021/09/17 10:56:29;;;;;;;0.63;0.40;;;;;;;22.22;49.03;100874.91;4934466;28;20505;-84
2021/09/17 10:59:28;;;;;;;0.35;0.35;;;;;;;22.17;49.05;100873.44;4932314;28;20051;-84
2021/09/17 11:02:06;;;;;;;1.88;0.60;;;;;;;22.39;48.47;100873.16;4935477;28;20130;-85
2021/09/17 11:04:38;;;;;;;1.15;0.40;;;;;;;22.58;47.95;100875.66;4939811;28;20517;-84
2021/09/17 11:07:17;;;;;;;0.90;0.47;;;;;;;22.47;48.36;100873.59;4922792;28;20078;-84
2021/09/17 11:09:50;;;;;;;1.08;0.30;;;;;;;22.31;48.74;100874.41;4930855;28;20102;-85
2021/09/17 11:12:26;;;;;;;0.40;0.40;;;;;;;21.87;49.88;100874.13;4937834;28;20636;-84
2021/09/17 11:15:04;;;;;;;0.40;0.40;;;;;;;21.26;51.17;100871.88;4934854;28;20142;-84
2021/09/17 11:17:52;;;;;;;0.88;0.40;;;;;;;20.92;52.51;100872.69;4936771;28;20054;-83
2021/09/17 11:20:29;;;;;;;1.15;0.60;;;;;;;20.69;52.96;100871.97;4944732;28;20375;-85
2021/09/17 11:23:09;;;;;;;0.88;0.43;;;;;;;20.61;53.44;100875.00;4925538;28;20162;-86
2021/09/17 11:25:44;;;;;;;2.33;0.50;;;;;;;20.53;54.03;100868.31;4929970;28;20154;-84
2021/09/17 11:28:27;;;;;;;0.50;0.50;;;;;;;20.62;54.39;100874.06;4924375;28;20074;-85
2021/09/17 11:30:54;;;;;;;1.42;0.85;;;;;;;21.20;53.16;100865.97;4944003;28;20331;-84